sensor_id;sensor_type;location;lat;lon;timestamp;temperature;humidity
4757;DHT22;2392;52.578;13.426;2022-09-20T00:01:46;10.00;99.90
4757;DHT22;2392;52.578;13.426;2022-09-20T00:04:13;10.00;99.90
4757;DHT22;2392;52.578;13.426;2022-09-20T00:06:40;10.00;99.90
4757;DHT22;2392;52.578;13.426;2022-09-20T00:09:08;10.00;99.90
4757;DHT22;2392;52.578;13.426;2022-09-20T00:11:36;10.00;99.90
4757;DHT22;2392;52.578;13.426;2022-09-20T00:14:04;10.00;99.90
4757;DHT22;2392;52.578;13.426;2022-09-20T00:16:35;10.00;99.90
4757;DHT22;2392;52.578;13.426;2022-09-20T00:19:04;10.00;99.90
4757;DHT22;2392;52.578;13.426;2022-09-20T00:21:33;9.90;99.90
4757;DHT22;2392;52.578;13.426;2022-09-20T00:24:02;9.90;99.90
4757;DHT22;2392;52.578;13.426;2022-09-20T00:26:31;9.90;99.90
4757;DHT22;2392;52.578;13.426;2022-09-20T00:28:58;9.90;99.90
4757;DHT22;2392;52.578;13.426;2022-09-20T00:31:26;9.90;99.90
4757;DHT22;2392;52.578;13.426;2022-09-20T00:33:53;9.90;99.90
4757;DHT22;2392;52.578;13.426;2022-09-20T00:36:38;9.90;99.90
4757;DHT22;2392;52.578;13.426;2022-09-20T00:39:05;9.80;99.90
4757;DHT22;2392;52.578;13.426;2022-09-20T00:41:34;9.90;99.90
4757;DHT22;2392;52.578;13.426;2022-09-20T00:44:01;9.80;99.90
4757;DHT22;2392;52.578;13.426;2022-09-20T00:46:33;9.80;99.90
4757;DHT22;2392;52.578;13.426;2022-09-20T00:49:06;9.90;99.90
4757;DHT22;2392;52.578;13.426;2022-09-20T00:51:38;9.80;99.90
4757;DHT22;2392;52.578;13.426;2022-09-20T00:54:08;9.80;99.90
4757;DHT22;2392;52.578;13.426;2022-09-20T00:56:39;9.80;99.90
4757;DHT22;2392;52.578;13.426;2022-09-20T00:59:13;9.80;99.90
4757;DHT22;2392;52.578;13.426;2022-09-20T01:01:40;9.80;99.90
4757;DHT22;2392;52.578;13.426;2022-09-20T01:04:08;9.70;99.90
4757;DHT22;2392;52.578;13.426;2022-09-20T01:06:37;9.70;99.90
4757;DHT22;2392;52.578;13.426;2022-09-20T01:09:04;9.70;99.90
4757;DHT22;2392;52.578;13.426;2022-09-20T01:11:35;9.70;99.90
4757;DHT22;2392;52.578;13.426;2022-09-20T01:14:04;9.70;99.90
4757;DHT22;2392;52.578;13.426;2022-09-20T01:16:32;9.70;99.90
4757;DHT22;2392;52.578;13.426;2022-09-20T01:19:01;9.70;99.90
4757;DHT22;2392;52.578;13.426;2022-09-20T01:21:33;9.70;99.90
4757;DHT22;2392;52.578;13.426;2022-09-20T01:24:04;9.70;99.90
4757;DHT22;2392;52.578;13.426;2022-09-20T01:27:02;9.70;99.90
4757;DHT22;2392;52.578;13.426;2022-09-20T01:30:00;9.70;99.90
4757;DHT22;2392;52.578;13.426;2022-09-20T01:32:38;9.70;99.90
4757;DHT22;2392;52.578;13.426;2022-09-20T01:35:08;9.70;99.90
4757;DHT22;2392;52.578;13.426;2022-09-20T01:37:45;9.70;99.90
4757;DHT22;2392;52.578;13.426;2022-09-20T01:40:21;9.70;99.90
4757;DHT22;2392;52.578;13.426;2022-09-20T01:42:57;9.70;99.90
4757;DHT22;2392;52.578;13.426;2022-09-20T01:45:31;9.70;99.90
4757;DHT22;2392;52.578;13.426;2022-09-20T01:48:08;9.70;99.90
4757;DHT22;2392;52.578;13.426;2022-09-20T01:50:49;9.70;99.90
4757;DHT22;2392;52.578;13.426;2022-09-20T01:59:48;9.60;99.90
4757;DHT22;2392;52.578;13.426;2022-09-20T02:08:58;9.60;99.90
4757;DHT22;2392;52.578;13.426;2022-09-20T02:11:40;9.60;99.90
4757;DHT22;2392;52.578;13.426;2022-09-20T02:14:31;9.60;99.90
4757;DHT22;2392;52.578;13.426;2022-09-20T02:17:09;9.60;99.90
4757;DHT22;2392;52.578;13.426;2022-09-20T02:20:00;9.60;99.90
4757;DHT22;2392;52.578;13.426;2022-09-20T02:22:52;9.50;99.90
4757;DHT22;2392;52.578;13.426;2022-09-20T02:25:42;9.60;99.90
4757;DHT22;2392;52.578;13.426;2022-09-20T02:28:22;9.50;99.90
4757;DHT22;2392;52.578;13.426;2022-09-20T02:31:07;9.50;99.90
4757;DHT22;2392;52.578;13.426;2022-09-20T02:34:02;9.60;99.90
4757;DHT22;2392;52.578;13.426;2022-09-20T02:36:40;9.60;99.90
4757;DHT22;2392;52.578;13.426;2022-09-20T02:39:15;9.60;99.90
4757;DHT22;2392;52.578;13.426;2022-09-20T02:41:56;9.60;99.90
4757;DHT22;2392;52.578;13.426;2022-09-20T02:44:54;9.60;99.90
4757;DHT22;2392;52.578;13.426;2022-09-20T02:47:30;9.60;99.90
4757;DHT22;2392;52.578;13.426;2022-09-20T02:50:13;9.60;99.90
4757;DHT22;2392;52.578;13.426;2022-09-20T02:52:51;9.50;99.90
4757;DHT22;2392;52.578;13.426;2022-09-20T02:55:26;9.60;99.90
4757;DHT22;2392;52.578;13.426;2022-09-20T02:58:11;9.50;99.90
4757;DHT22;2392;52.578;13.426;2022-09-20T03:00:47;9.50;99.90
4757;DHT22;2392;52.578;13.426;2022-09-20T03:03:20;9.50;99.90
4757;DHT22;2392;52.578;13.426;2022-09-20T03:05:57;9.60;99.90
4757;DHT22;2392;52.578;13.426;2022-09-20T03:08:32;9.50;99.90
4757;DHT22;2392;52.578;13.426;2022-09-20T03:11:07;9.50;99.90
4757;DHT22;2392;52.578;13.426;2022-09-20T03:13:51;9.50;99.90
4757;DHT22;2392;52.578;13.426;2022-09-20T03:16:30;9.50;99.90
4757;DHT22;2392;52.578;13.426;2022-09-20T03:19:07;9.50;99.90
4757;DHT22;2392;52.578;13.426;2022-09-20T03:21:45;9.50;99.90
4757;DHT22;2392;52.578;13.426;2022-09-20T03:24:24;9.50;99.90
4757;DHT22;2392;52.578;13.426;2022-09-20T03:26:57;9.50;99.90
4757;DHT22;2392;52.578;13.426;2022-09-20T03:29:48;9.50;99.90
4757;DHT22;2392;52.578;13.426;2022-09-20T03:32:32;9.50;99.90
4757;DHT22;2392;52.578;13.426;2022-09-20T03:35:14;9.50;99.90
4757;DHT22;2392;52.578;13.426;2022-09-20T03:37:56;9.50;99.90
4757;DHT22;2392;52.578;13.426;2022-09-20T03:40:43;9.50;99.90
4757;DHT22;2392;52.578;13.426;2022-09-20T03:43:25;9.50;99.90
4757;DHT22;2392;52.578;13.426;2022-09-20T03:46:06;9.50;99.90
4757;DHT22;2392;52.578;13.426;2022-09-20T03:48:55;9.60;99.90
4757;DHT22;2392;52.578;13.426;2022-09-20T03:51:28;9.60;99.90
4757;DHT22;2392;52.578;13.426;2022-09-20T03:54:25;9.60;99.90
4757;DHT22;2392;52.578;13.426;2022-09-20T03:57:14;9.60;99.90
4757;DHT22;2392;52.578;13.426;2022-09-20T04:02:52;9.70;99.90
4757;DHT22;2392;52.578;13.426;2022-09-20T04:05:27;9.70;99.90
4757;DHT22;2392;52.578;13.426;2022-09-20T04:08:05;9.70;99.90
4757;DHT22;2392;52.578;13.426;2022-09-20T04:10:44;9.80;99.90
4757;DHT22;2392;52.578;13.426;2022-09-20T04:13:29;9.80;99.90
4757;DHT22;2392;52.578;13.426;2022-09-20T04:16:13;9.80;99.90
4757;DHT22;2392;52.578;13.426;2022-09-20T04:18:50;9.80;99.90
4757;DHT22;2392;52.578;13.426;2022-09-20T04:21:26;9.90;99.90
4757;DHT22;2392;52.578;13.426;2022-09-20T04:23:59;9.90;99.90
4757;DHT22;2392;52.578;13.426;2022-09-20T04:26:29;9.90;99.90
4757;DHT22;2392;52.578;13.426;2022-09-20T04:29:01;9.90;99.90
4757;DHT22;2392;52.578;13.426;2022-09-20T04:31:36;10.00;99.90
4757;DHT22;2392;52.578;13.426;2022-09-20T04:34:11;9.90;99.90
4757;DHT22;2392;52.578;13.426;2022-09-20T04:36:56;9.90;99.90
4757;DHT22;2392;52.578;13.426;2022-09-20T04:39:30;9.90;99.90
4757;DHT22;2392;52.578;13.426;2022-09-20T04:42:36;9.90;99.90
4757;DHT22;2392;52.578;13.426;2022-09-20T04:45:43;9.90;99.90
4757;DHT22;2392;52.578;13.426;2022-09-20T04:51:51;9.90;99.90
4757;DHT22;2392;52.578;13.426;2022-09-20T04:54:45;9.90;99.90
4757;DHT22;2392;52.578;13.426;2022-09-20T04:57:36;9.90;99.90
4757;DHT22;2392;52.578;13.426;2022-09-20T05:00:11;9.90;99.90
4757;DHT22;2392;52.578;13.426;2022-09-20T05:03:05;9.90;99.90
4757;DHT22;2392;52.578;13.426;2022-09-20T05:05:50;9.90;99.90
4757;DHT22;2392;52.578;13.426;2022-09-20T05:08:45;9.90;99.90
4757;DHT22;2392;52.578;13.426;2022-09-20T05:11:47;9.90;99.90
4757;DHT22;2392;52.578;13.426;2022-09-20T05:14:56;9.90;99.90
4757;DHT22;2392;52.578;13.426;2022-09-20T05:17:37;9.90;99.90
4757;DHT22;2392;52.578;13.426;2022-09-20T05:20:32;9.90;99.90
4757;DHT22;2392;52.578;13.426;2022-09-20T05:23:30;9.90;99.90
4757;DHT22;2392;52.578;13.426;2022-09-20T05:26:09;10.00;99.90
4757;DHT22;2392;52.578;13.426;2022-09-20T05:28:46;10.00;99.90
4757;DHT22;2392;52.578;13.426;2022-09-20T05:31:23;10.00;99.90
4757;DHT22;2392;52.578;13.426;2022-09-20T05:33:58;10.00;99.90
4757;DHT22;2392;52.578;13.426;2022-09-20T05:36:32;10.00;99.90
4757;DHT22;2392;52.578;13.426;2022-09-20T05:39:11;10.00;99.90
4757;DHT22;2392;52.578;13.426;2022-09-20T05:41:46;10.00;99.90
4757;DHT22;2392;52.578;13.426;2022-09-20T05:44:25;10.10;99.90
4757;DHT22;2392;52.578;13.426;2022-09-20T05:47:01;10.10;99.90
4757;DHT22;2392;52.578;13.426;2022-09-20T05:49:39;10.10;99.90
4757;DHT22;2392;52.578;13.426;2022-09-20T05:52:26;10.10;99.90
4757;DHT22;2392;52.578;13.426;2022-09-20T05:55:19;10.20;99.90
4757;DHT22;2392;52.578;13.426;2022-09-20T05:58:02;10.20;99.90
4757;DHT22;2392;52.578;13.426;2022-09-20T06:00:35;10.30;99.90
4757;DHT22;2392;52.578;13.426;2022-09-20T06:03:12;10.30;99.90
4757;DHT22;2392;52.578;13.426;2022-09-20T06:05:48;10.30;99.90
4757;DHT22;2392;52.578;13.426;2022-09-20T06:08:30;10.30;99.90
4757;DHT22;2392;52.578;13.426;2022-09-20T06:11:09;10.40;99.90
4757;DHT22;2392;52.578;13.426;2022-09-20T06:14:00;10.40;99.90
4757;DHT22;2392;52.578;13.426;2022-09-20T06:16:35;10.50;99.90
4757;DHT22;2392;52.578;13.426;2022-09-20T06:19:09;10.50;99.90
4757;DHT22;2392;52.578;13.426;2022-09-20T06:21:41;10.60;99.90
4757;DHT22;2392;52.578;13.426;2022-09-20T06:24:24;10.50;99.90
4757;DHT22;2392;52.578;13.426;2022-09-20T06:26:55;10.50;99.90
4757;DHT22;2392;52.578;13.426;2022-09-20T06:29:29;10.60;99.90
4757;DHT22;2392;52.578;13.426;2022-09-20T06:31:57;10.60;99.90
4757;DHT22;2392;52.578;13.426;2022-09-20T06:34:24;10.60;99.90
4757;DHT22;2392;52.578;13.426;2022-09-20T06:36:59;10.60;99.90
4757;DHT22;2392;52.578;13.426;2022-09-20T06:39:52;10.60;99.90
4757;DHT22;2392;52.578;13.426;2022-09-20T06:42:39;10.60;99.90
4757;DHT22;2392;52.578;13.426;2022-09-20T06:45:10;10.70;99.90
4757;DHT22;2392;52.578;13.426;2022-09-20T06:47:37;10.70;99.90
4757;DHT22;2392;52.578;13.426;2022-09-20T06:50:05;10.70;99.90
4757;DHT22;2392;52.578;13.426;2022-09-20T06:52:32;10.70;99.90
4757;DHT22;2392;52.578;13.426;2022-09-20T06:55:00;10.70;99.90
4757;DHT22;2392;52.578;13.426;2022-09-20T06:57:35;10.70;99.90
4757;DHT22;2392;52.578;13.426;2022-09-20T07:00:03;10.80;99.90
4757;DHT22;2392;52.578;13.426;2022-09-20T07:02:32;10.80;99.90
4757;DHT22;2392;52.578;13.426;2022-09-20T07:04:59;10.80;99.90
4757;DHT22;2392;52.578;13.426;2022-09-20T07:07:26;10.80;99.90
4757;DHT22;2392;52.578;13.426;2022-09-20T07:09:53;10.80;99.90
4757;DHT22;2392;52.578;13.426;2022-09-20T07:12:20;10.80;99.90
4757;DHT22;2392;52.578;13.426;2022-09-20T07:14:47;10.80;99.90
4757;DHT22;2392;52.578;13.426;2022-09-20T07:17:15;10.80;99.90
4757;DHT22;2392;52.578;13.426;2022-09-20T07:19:43;10.70;99.90
4757;DHT22;2392;52.578;13.426;2022-09-20T07:22:10;10.70;99.90
4757;DHT22;2392;52.578;13.426;2022-09-20T07:24:37;10.70;99.90
4757;DHT22;2392;52.578;13.426;2022-09-20T07:27:05;10.70;99.90
4757;DHT22;2392;52.578;13.426;2022-09-20T07:29:32;10.70;99.90
4757;DHT22;2392;52.578;13.426;2022-09-20T07:32:00;10.80;99.90
4757;DHT22;2392;52.578;13.426;2022-09-20T07:34:27;10.80;99.90
4757;DHT22;2392;52.578;13.426;2022-09-20T07:36:56;10.80;99.90
4757;DHT22;2392;52.578;13.426;2022-09-20T07:39:24;10.70;99.90
4757;DHT22;2392;52.578;13.426;2022-09-20T07:41:51;10.80;99.90
4757;DHT22;2392;52.578;13.426;2022-09-20T07:44:18;10.90;99.90
4757;DHT22;2392;52.578;13.426;2022-09-20T07:46:49;11.00;99.90
4757;DHT22;2392;52.578;13.426;2022-09-20T07:49:17;11.00;99.90
4757;DHT22;2392;52.578;13.426;2022-09-20T07:51:44;11.10;99.90
4757;DHT22;2392;52.578;13.426;2022-09-20T07:54:12;11.10;99.90
4757;DHT22;2392;52.578;13.426;2022-09-20T07:56:40;11.20;99.90
4757;DHT22;2392;52.578;13.426;2022-09-20T07:59:07;11.20;99.90
4757;DHT22;2392;52.578;13.426;2022-09-20T08:01:34;11.30;99.90
4757;DHT22;2392;52.578;13.426;2022-09-20T08:04:03;11.40;99.90
4757;DHT22;2392;52.578;13.426;2022-09-20T08:06:30;11.50;99.90
4757;DHT22;2392;52.578;13.426;2022-09-20T08:08:57;11.50;99.90
4757;DHT22;2392;52.578;13.426;2022-09-20T08:11:27;11.60;99.90
4757;DHT22;2392;52.578;13.426;2022-09-20T08:13:57;11.70;99.90
4757;DHT22;2392;52.578;13.426;2022-09-20T08:16:25;11.80;99.90
4757;DHT22;2392;52.578;13.426;2022-09-20T08:18:53;11.80;99.90
4757;DHT22;2392;52.578;13.426;2022-09-20T08:21:23;11.90;99.90
4757;DHT22;2392;52.578;13.426;2022-09-20T08:23:50;12.00;99.90
4757;DHT22;2392;52.578;13.426;2022-09-20T08:26:19;12.00;99.90
4757;DHT22;2392;52.578;13.426;2022-09-20T08:28:51;12.10;99.90
4757;DHT22;2392;52.578;13.426;2022-09-20T08:31:19;12.20;99.90
4757;DHT22;2392;52.578;13.426;2022-09-20T08:33:47;12.30;99.90
4757;DHT22;2392;52.578;13.426;2022-09-20T08:36:16;12.40;99.90
4757;DHT22;2392;52.578;13.426;2022-09-20T08:38:43;12.40;99.90
4757;DHT22;2392;52.578;13.426;2022-09-20T08:41:14;12.50;99.90
4757;DHT22;2392;52.578;13.426;2022-09-20T08:43:45;12.60;99.90
4757;DHT22;2392;52.578;13.426;2022-09-20T08:46:17;12.70;99.90
4757;DHT22;2392;52.578;13.426;2022-09-20T08:48:45;12.80;99.90
4757;DHT22;2392;52.578;13.426;2022-09-20T08:51:14;12.80;99.90
4757;DHT22;2392;52.578;13.426;2022-09-20T08:53:44;12.90;99.90
4757;DHT22;2392;52.578;13.426;2022-09-20T08:56:12;13.00;99.90
4757;DHT22;2392;52.578;13.426;2022-09-20T08:58:39;13.10;99.90
4757;DHT22;2392;52.578;13.426;2022-09-20T09:01:06;13.20;99.90
4757;DHT22;2392;52.578;13.426;2022-09-20T09:03:37;13.30;99.90
4757;DHT22;2392;52.578;13.426;2022-09-20T09:06:04;13.40;99.90
4757;DHT22;2392;52.578;13.426;2022-09-20T09:08:37;13.50;99.90
4757;DHT22;2392;52.578;13.426;2022-09-20T09:11:05;13.50;99.90
4757;DHT22;2392;52.578;13.426;2022-09-20T09:13:38;13.60;99.90
4757;DHT22;2392;52.578;13.426;2022-09-20T09:16:10;13.70;99.90
4757;DHT22;2392;52.578;13.426;2022-09-20T09:18:41;13.80;99.90
4757;DHT22;2392;52.578;13.426;2022-09-20T09:21:19;13.80;99.90
4757;DHT22;2392;52.578;13.426;2022-09-20T09:23:51;14.00;99.90
4757;DHT22;2392;52.578;13.426;2022-09-20T09:26:20;14.10;99.90
4757;DHT22;2392;52.578;13.426;2022-09-20T09:29:06;14.10;99.90
4757;DHT22;2392;52.578;13.426;2022-09-20T09:31:34;14.20;99.90
4757;DHT22;2392;52.578;13.426;2022-09-20T09:34:04;14.40;99.90
4757;DHT22;2392;52.578;13.426;2022-09-20T09:36:31;14.50;99.90
4757;DHT22;2392;52.578;13.426;2022-09-20T09:39:15;14.70;99.90
4757;DHT22;2392;52.578;13.426;2022-09-20T09:41:42;14.80;99.90
4757;DHT22;2392;52.578;13.426;2022-09-20T09:44:19;14.80;99.90
4757;DHT22;2392;52.578;13.426;2022-09-20T09:46:47;14.90;99.90
4757;DHT22;2392;52.578;13.426;2022-09-20T09:49:18;14.90;99.90
4757;DHT22;2392;52.578;13.426;2022-09-20T09:52:04;15.00;99.90
4757;DHT22;2392;52.578;13.426;2022-09-20T09:54:33;15.20;99.90
4757;DHT22;2392;52.578;13.426;2022-09-20T09:57:22;15.50;99.90
4757;DHT22;2392;52.578;13.426;2022-09-20T10:00:04;15.70;99.90
4757;DHT22;2392;52.578;13.426;2022-09-20T10:02:59;15.80;99.90
4757;DHT22;2392;52.578;13.426;2022-09-20T10:05:39;15.70;99.90
4757;DHT22;2392;52.578;13.426;2022-09-20T10:08:18;15.50;99.90
4757;DHT22;2392;52.578;13.426;2022-09-20T10:10:57;15.60;99.90
4757;DHT22;2392;52.578;13.426;2022-09-20T10:13:34;16.00;99.90
4757;DHT22;2392;52.578;13.426;2022-09-20T10:16:10;16.40;99.90
4757;DHT22;2392;52.578;13.426;2022-09-20T10:18:46;17.00;99.90
4757;DHT22;2392;52.578;13.426;2022-09-20T10:21:34;17.10;99.90
4757;DHT22;2392;52.578;13.426;2022-09-20T10:24:19;17.30;99.90
4757;DHT22;2392;52.578;13.426;2022-09-20T10:27:13;17.40;99.90
4757;DHT22;2392;52.578;13.426;2022-09-20T10:29:53;17.30;99.90
4757;DHT22;2392;52.578;13.426;2022-09-20T10:32:38;17.20;99.90
4757;DHT22;2392;52.578;13.426;2022-09-20T10:35:15;16.80;99.90
4757;DHT22;2392;52.578;13.426;2022-09-20T10:37:57;16.30;99.90
4757;DHT22;2392;52.578;13.426;2022-09-20T10:40:29;16.00;99.90
4757;DHT22;2392;52.578;13.426;2022-09-20T10:43:29;15.60;99.90
4757;DHT22;2392;52.578;13.426;2022-09-20T10:46:08;15.40;99.90
4757;DHT22;2392;52.578;13.426;2022-09-20T10:48:44;15.10;99.90
4757;DHT22;2392;52.578;13.426;2022-09-20T10:51:19;14.80;99.90
4757;DHT22;2392;52.578;13.426;2022-09-20T10:53:57;14.60;99.90
4757;DHT22;2392;52.578;13.426;2022-09-20T10:56:31;14.40;99.90
4757;DHT22;2392;52.578;13.426;2022-09-20T10:59:30;14.40;99.90
4757;DHT22;2392;52.578;13.426;2022-09-20T11:02:12;14.30;99.90
4757;DHT22;2392;52.578;13.426;2022-09-20T11:04:58;14.10;99.90
4757;DHT22;2392;52.578;13.426;2022-09-20T11:07:40;13.80;99.90
4757;DHT22;2392;52.578;13.426;2022-09-20T11:10:20;13.50;99.90
4757;DHT22;2392;52.578;13.426;2022-09-20T11:12:52;13.30;99.90
4757;DHT22;2392;52.578;13.426;2022-09-20T11:15:25;13.00;99.90
4757;DHT22;2392;52.578;13.426;2022-09-20T11:18:01;12.80;99.90
4757;DHT22;2392;52.578;13.426;2022-09-20T11:20:34;12.60;99.90
4757;DHT22;2392;52.578;13.426;2022-09-20T11:23:04;12.50;99.90
4757;DHT22;2392;52.578;13.426;2022-09-20T11:25:36;12.20;99.90
4757;DHT22;2392;52.578;13.426;2022-09-20T11:28:09;12.10;99.90
4757;DHT22;2392;52.578;13.426;2022-09-20T11:30:40;12.00;99.90
4757;DHT22;2392;52.578;13.426;2022-09-20T11:33:14;11.90;99.90
4757;DHT22;2392;52.578;13.426;2022-09-20T11:35:47;11.80;99.90
4757;DHT22;2392;52.578;13.426;2022-09-20T11:38:18;11.80;99.90
4757;DHT22;2392;52.578;13.426;2022-09-20T11:40:52;11.80;99.90
4757;DHT22;2392;52.578;13.426;2022-09-20T11:43:22;11.80;99.90
4757;DHT22;2392;52.578;13.426;2022-09-20T11:45:57;11.90;99.90
4757;DHT22;2392;52.578;13.426;2022-09-20T11:48:29;12.00;99.90
4757;DHT22;2392;52.578;13.426;2022-09-20T11:54:43;12.30;99.90
4757;DHT22;2392;52.578;13.426;2022-09-20T11:57:25;12.40;99.90
4757;DHT22;2392;52.578;13.426;2022-09-20T11:59:55;12.70;99.90
4757;DHT22;2392;52.578;13.426;2022-09-20T12:02:33;13.00;99.90
4757;DHT22;2392;52.578;13.426;2022-09-20T12:05:02;13.40;99.90
4757;DHT22;2392;52.578;13.426;2022-09-20T12:07:33;13.80;99.90
4757;DHT22;2392;52.578;13.426;2022-09-20T12:10:02;14.10;99.90
4757;DHT22;2392;52.578;13.426;2022-09-20T12:12:38;14.40;99.90
4757;DHT22;2392;52.578;13.426;2022-09-20T12:15:21;14.50;99.90
4757;DHT22;2392;52.578;13.426;2022-09-20T12:18:11;14.70;99.90
4757;DHT22;2392;52.578;13.426;2022-09-20T12:20:59;14.80;99.90
4757;DHT22;2392;52.578;13.426;2022-09-20T12:26:40;14.90;99.90
4757;DHT22;2392;52.578;13.426;2022-09-20T12:32:51;15.10;99.90
4757;DHT22;2392;52.578;13.426;2022-09-20T12:38:34;15.10;99.90
4757;DHT22;2392;52.578;13.426;2022-09-20T12:41:08;15.20;99.90
4757;DHT22;2392;52.578;13.426;2022-09-20T12:43:45;15.30;99.90
4757;DHT22;2392;52.578;13.426;2022-09-20T12:49:34;15.50;99.90
4757;DHT22;2392;52.578;13.426;2022-09-20T12:52:37;15.50;99.90
4757;DHT22;2392;52.578;13.426;2022-09-20T12:55:34;15.40;99.90
4757;DHT22;2392;52.578;13.426;2022-09-20T12:58:16;15.30;99.90
4757;DHT22;2392;52.578;13.426;2022-09-20T13:00:45;15.10;99.90
4757;DHT22;2392;52.578;13.426;2022-09-20T13:03:28;15.00;99.90
4757;DHT22;2392;52.578;13.426;2022-09-20T13:06:23;14.80;99.90
4757;DHT22;2392;52.578;13.426;2022-09-20T13:08:59;14.60;99.90
4757;DHT22;2392;52.578;13.426;2022-09-20T13:11:34;14.50;99.90
4757;DHT22;2392;52.578;13.426;2022-09-20T13:14:07;14.50;99.90
4757;DHT22;2392;52.578;13.426;2022-09-20T13:16:48;14.50;99.90
4757;DHT22;2392;52.578;13.426;2022-09-20T13:19:19;14.50;99.90
4757;DHT22;2392;52.578;13.426;2022-09-20T13:21:53;14.50;99.90
4757;DHT22;2392;52.578;13.426;2022-09-20T13:24:23;14.50;99.90
4757;DHT22;2392;52.578;13.426;2022-09-20T13:26:52;14.40;99.90
4757;DHT22;2392;52.578;13.426;2022-09-20T13:29:24;14.30;99.90
4757;DHT22;2392;52.578;13.426;2022-09-20T13:31:53;14.30;99.90
4757;DHT22;2392;52.578;13.426;2022-09-20T13:34:22;14.30;99.90
4757;DHT22;2392;52.578;13.426;2022-09-20T13:36:52;14.30;99.90
4757;DHT22;2392;52.578;13.426;2022-09-20T13:39:30;14.30;99.90
4757;DHT22;2392;52.578;13.426;2022-09-20T13:42:01;14.30;99.90
4757;DHT22;2392;52.578;13.426;2022-09-20T13:44:32;14.20;99.90
4757;DHT22;2392;52.578;13.426;2022-09-20T13:47:00;14.20;99.90
4757;DHT22;2392;52.578;13.426;2022-09-20T13:49:30;14.10;99.90
4757;DHT22;2392;52.578;13.426;2022-09-20T13:52:14;14.10;99.90
4757;DHT22;2392;52.578;13.426;2022-09-20T13:54:45;14.10;99.90
4757;DHT22;2392;52.578;13.426;2022-09-20T13:57:19;14.20;99.90
4757;DHT22;2392;52.578;13.426;2022-09-20T13:59:47;14.30;99.90
4757;DHT22;2392;52.578;13.426;2022-09-20T14:02:20;14.60;99.90
4757;DHT22;2392;52.578;13.426;2022-09-20T14:04:48;14.80;99.90
4757;DHT22;2392;52.578;13.426;2022-09-20T14:07:17;15.00;99.90
4757;DHT22;2392;52.578;13.426;2022-09-20T14:09:45;15.10;99.90
4757;DHT22;2392;52.578;13.426;2022-09-20T14:12:12;15.30;99.90
4757;DHT22;2392;52.578;13.426;2022-09-20T14:14:40;15.40;99.90
4757;DHT22;2392;52.578;13.426;2022-09-20T14:17:07;15.50;99.90
4757;DHT22;2392;52.578;13.426;2022-09-20T14:19:39;15.40;99.90
4757;DHT22;2392;52.578;13.426;2022-09-20T14:22:07;15.30;99.90
4757;DHT22;2392;52.578;13.426;2022-09-20T14:24:38;15.40;99.90
4757;DHT22;2392;52.578;13.426;2022-09-20T14:27:15;15.40;99.90
4757;DHT22;2392;52.578;13.426;2022-09-20T14:29:43;15.60;99.90
4757;DHT22;2392;52.578;13.426;2022-09-20T14:32:23;16.10;99.90
4757;DHT22;2392;52.578;13.426;2022-09-20T14:34:58;16.70;99.90
4757;DHT22;2392;52.578;13.426;2022-09-20T14:37:28;17.30;99.90
4757;DHT22;2392;52.578;13.426;2022-09-20T14:39:58;17.80;99.90
4757;DHT22;2392;52.578;13.426;2022-09-20T14:42:30;17.80;99.90
4757;DHT22;2392;52.578;13.426;2022-09-20T14:44:58;17.90;99.90
4757;DHT22;2392;52.578;13.426;2022-09-20T14:47:26;17.80;99.90
4757;DHT22;2392;52.578;13.426;2022-09-20T14:49:54;17.50;99.90
4757;DHT22;2392;52.578;13.426;2022-09-20T14:52:34;17.20;99.90
4757;DHT22;2392;52.578;13.426;2022-09-20T14:55:18;16.90;99.90
4757;DHT22;2392;52.578;13.426;2022-09-20T14:57:47;16.60;99.90
4757;DHT22;2392;52.578;13.426;2022-09-20T15:00:16;16.20;99.90
4757;DHT22;2392;52.578;13.426;2022-09-20T15:02:45;16.00;99.90
4757;DHT22;2392;52.578;13.426;2022-09-20T15:05:19;15.80;99.90
4757;DHT22;2392;52.578;13.426;2022-09-20T15:07:48;15.70;99.90
4757;DHT22;2392;52.578;13.426;2022-09-20T15:10:17;15.50;99.90
4757;DHT22;2392;52.578;13.426;2022-09-20T15:12:44;15.40;99.90
4757;DHT22;2392;52.578;13.426;2022-09-20T15:15:12;15.20;99.90
4757;DHT22;2392;52.578;13.426;2022-09-20T15:17:41;15.00;99.90
4757;DHT22;2392;52.578;13.426;2022-09-20T15:20:13;14.80;99.90
4757;DHT22;2392;52.578;13.426;2022-09-20T15:22:41;14.60;99.90
4757;DHT22;2392;52.578;13.426;2022-09-20T15:25:11;14.50;99.90
4757;DHT22;2392;52.578;13.426;2022-09-20T15:27:41;14.40;99.90
4757;DHT22;2392;52.578;13.426;2022-09-20T15:30:10;14.20;99.90
4757;DHT22;2392;52.578;13.426;2022-09-20T15:32:38;14.00;99.90
4757;DHT22;2392;52.578;13.426;2022-09-20T15:35:06;13.80;99.90
4757;DHT22;2392;52.578;13.426;2022-09-20T15:37:32;13.70;99.90
4757;DHT22;2392;52.578;13.426;2022-09-20T15:39:59;13.50;99.90
4757;DHT22;2392;52.578;13.426;2022-09-20T15:42:26;13.30;99.90
4757;DHT22;2392;52.578;13.426;2022-09-20T15:44:54;13.20;99.90
4757;DHT22;2392;52.578;13.426;2022-09-20T15:47:21;13.20;99.90
4757;DHT22;2392;52.578;13.426;2022-09-20T15:49:49;13.10;99.90
4757;DHT22;2392;52.578;13.426;2022-09-20T15:52:17;13.00;99.90
4757;DHT22;2392;52.578;13.426;2022-09-20T15:54:50;13.00;99.90
4757;DHT22;2392;52.578;13.426;2022-09-20T15:57:17;13.00;99.90
4757;DHT22;2392;52.578;13.426;2022-09-20T15:59:44;13.00;99.90
4757;DHT22;2392;52.578;13.426;2022-09-20T16:02:12;13.00;99.90
4757;DHT22;2392;52.578;13.426;2022-09-20T16:04:39;13.00;99.90
4757;DHT22;2392;52.578;13.426;2022-09-20T16:07:06;13.00;99.90
4757;DHT22;2392;52.578;13.426;2022-09-20T16:09:34;13.00;99.90
4757;DHT22;2392;52.578;13.426;2022-09-20T16:12:03;13.00;99.90
4757;DHT22;2392;52.578;13.426;2022-09-20T16:14:30;13.00;99.90
4757;DHT22;2392;52.578;13.426;2022-09-20T16:16:57;13.00;99.90
4757;DHT22;2392;52.578;13.426;2022-09-20T16:19:25;12.90;99.90
4757;DHT22;2392;52.578;13.426;2022-09-20T16:21:52;12.90;99.90
4757;DHT22;2392;52.578;13.426;2022-09-20T16:24:22;12.90;99.90
4757;DHT22;2392;52.578;13.426;2022-09-20T16:26:49;12.90;99.90
4757;DHT22;2392;52.578;13.426;2022-09-20T16:29:16;12.90;99.90
4757;DHT22;2392;52.578;13.426;2022-09-20T16:31:44;12.80;99.90
4757;DHT22;2392;52.578;13.426;2022-09-20T16:34:14;12.80;99.90
4757;DHT22;2392;52.578;13.426;2022-09-20T16:36:44;12.80;99.90
4757;DHT22;2392;52.578;13.426;2022-09-20T16:39:13;12.80;99.90
4757;DHT22;2392;52.578;13.426;2022-09-20T16:41:40;12.80;99.90
4757;DHT22;2392;52.578;13.426;2022-09-20T16:44:07;12.80;99.90
4757;DHT22;2392;52.578;13.426;2022-09-20T16:46:34;12.80;99.90
4757;DHT22;2392;52.578;13.426;2022-09-20T16:49:03;12.80;99.90
4757;DHT22;2392;52.578;13.426;2022-09-20T16:51:33;12.80;99.90
4757;DHT22;2392;52.578;13.426;2022-09-20T16:54:03;12.70;99.90
4757;DHT22;2392;52.578;13.426;2022-09-20T16:56:32;12.70;99.90
4757;DHT22;2392;52.578;13.426;2022-09-20T16:59:00;12.70;99.90
4757;DHT22;2392;52.578;13.426;2022-09-20T17:01:27;12.70;99.90
4757;DHT22;2392;52.578;13.426;2022-09-20T17:03:54;12.70;99.90
4757;DHT22;2392;52.578;13.426;2022-09-20T17:06:21;12.70;99.90
4757;DHT22;2392;52.578;13.426;2022-09-20T17:08:51;12.70;99.90
4757;DHT22;2392;52.578;13.426;2022-09-20T17:11:22;12.70;99.90
4757;DHT22;2392;52.578;13.426;2022-09-20T17:13:50;12.70;99.90